Flight Track Log - Related Links

Times and Time Zones

All times are in EDT time to prevent confusion due to time zone crossing. See the UAL1291 flight status page for this flight to view local times or setup timezone preferences in your user account.

Time Position Orientation Groundspeed Altitude Reporting Facility
EDT Latitude Longitude Course Direction KTS MPH feet Rate Location/Type
Thu 06:17:48 AM 38.9000 -77.0833 270° West 206 237 3,000  Level Potomac TRACON
Thu 06:18:48 AM 38.9500 -77.1333 322° Northwest 256 295 6,400 3,037 Climbing Potomac TRACON
Thu 06:20:32 AM 38.9850 -77.2661 289° West 257 296 11,300 3,092 Climbing Washington Center
Thu 06:21:31 AM 38.9731 -77.3806 262° West 284 327 14,800 2,924 Climbing Washington Center
Thu 06:22:31 AM 38.9692 -77.5033 268° West 308 354 17,100 3,124 Climbing Washington Center
Thu 06:23:00 AM 38.9333 -77.7316 270° West  Level FlightAware Approximate
Thu 06:23:32 AM 38.9461 -77.6361 257° West 358 412 21,100  Level Washington Center
Thu 06:24:30 AM 38.9439 -77.7669 269° West 371 427 23,600 2,430 Climbing Washington Center
Thu 06:25:33 AM 38.9497 -77.9006 273° West 366 421 26,000 2,132 Climbing Washington Center
Thu 06:26:31 AM 38.9553 -78.0394 273° West 377 434 27,900 1,983 Climbing Washington Center
Thu 06:27:31 AM 38.9586 -78.1811 272° West 388 447 29,900 2,262 Climbing Washington Center
Thu 06:28:33 AM 38.9661 -78.3147 274° West 388 447 32,500 2,750 Climbing Washington Center
Thu 06:29:31 AM 38.9756 -78.4461 275° West 382 440 35,400 2,319 Climbing Washington Center
Thu 06:30:32 AM 38.9831 -78.5664 275° West 366 421 37,100 1,279 Climbing Washington Center
Thu 06:31:33 AM 38.9903 -78.6869 274° West 346 398 38,000 650 Climbing Washington Center
Thu 06:32:32 AM 38.9975 -78.8100 274° West 346 398 38,400 750 Climbing Washington Center
Thu 06:33:33 AM 39.0044 -78.9361 274° West 351 404 39,500 807 Climbing Washington Center
Thu 06:34:31 AM 39.0133 -79.0619 275° West 351 404 40,000 254 Climbing Washington Center
Thu 06:35:31 AM 39.0203 -79.1878 274° West 351 404 40,000  Level Washington Center
Thu 06:36:31 AM 39.0289 -79.3139 275° West 351 404 40,000  Level Washington Center
Thu 06:37:33 AM 39.0372 -79.4428 275° West 356 410 40,000  Level Washington Center
Thu 06:38:32 AM 39.0436 -79.5658 274° West 356 410 40,000  Level Washington Center
Thu 06:39:33 AM 39.0564 -79.6842 278° West 362 417 40,000  Level Washington Center
Thu 06:40:31 AM 39.0625 -79.8075 274° West 362 417 40,000  Level Washington Center
Thu 06:41:31 AM 39.0706 -79.9336 275° West 362 417 40,000  Level Washington Center
Thu 06:43:08 AM 39.0797 -80.1528 273° West 357 411 40,000  Level Indianapolis Center
Thu 06:44:09 AM 39.0878 -80.2806 275° West 357 411 40,000  Level Indianapolis Center
Thu 06:45:09 AM 39.0939 -80.4075 274° West 357 411 40,000  Level Indianapolis Center
Thu 06:46:10 AM 39.1008 -80.5361 274° West 357 411 40,000  Level Indianapolis Center
Thu 06:47:11 AM 39.1075 -80.6639 274° West 357 411 40,000  Level Indianapolis Center
Thu 06:48:11 AM 39.1139 -80.7886 274° West 357 411 40,000  Level Indianapolis Center
Thu 06:49:12 AM 39.1211 -80.9153 274° West 357 411 40,000  Level Indianapolis Center
Thu 06:50:13 AM 39.1269 -81.0408 273° West 356 410 40,000  Level Indianapolis Center
Thu 06:51:14 AM 39.1586 -81.1572 289° West 356 410 40,000  Level Indianapolis Center
Thu 06:52:14 AM 39.2100 -81.2647 302° West 356 410 40,000  Level Indianapolis Center
Thu 06:53:15 AM 39.2625 -81.3733 302° West 356 410 40,000  Level Indianapolis Center
Thu 06:54:16 AM 39.3133 -81.4828 301° West 356 410 40,000  Level Indianapolis Center
Thu 06:55:17 AM 39.3656 -81.5911 302° West 356 410 40,000  Level Indianapolis Center
Thu 06:56:17 AM 39.4178 -81.7011 302° West 357 411 40,000  Level Indianapolis Center
Thu 06:57:18 AM 39.4694 -81.8106 301° West 357 411 40,000  Level Indianapolis Center
Thu 06:59:20 AM 39.5825 -82.0503 302° West 357 411 40,000  Level Indianapolis Center
Thu 07:00:21 AM 39.6250 -82.1428 301° West 356 410 40,000  Level Indianapolis Center
Thu 07:01:21 AM 39.6858 -82.2733 301° West 355 409 40,000  Level Indianapolis Center
Thu 07:02:22 AM 39.7358 -82.3814 301° West 354 407 40,000  Level Indianapolis Center
Thu 07:03:23 AM 39.7856 -82.4897 301° West 354 407 40,000  Level Indianapolis Center
Thu 07:04:24 AM 39.8358 -82.5983 301° West 354 407 40,000  Level Indianapolis Center
Thu 07:05:25 AM 39.8861 -82.7064 301° West 353 406 40,000  Level Indianapolis Center
Thu 07:06:26 AM 39.9358 -82.8161 301° West 353 406 40,000  Level Indianapolis Center
Thu 07:07:27 AM 39.9864 -82.9258 301° West 353 406 40,000  Level Indianapolis Center
Thu 07:08:27 AM 40.0367 -83.0364 301° West 353 406 40,000  Level Indianapolis Center
Thu 07:09:28 AM 40.0864 -83.1467 301° West 354 407 40,000  Level Indianapolis Center
Thu 07:10:30 AM 40.1353 -83.2561 300° West 354 407 40,000  Level Indianapolis Center
Thu 07:11:30 AM 40.1844 -83.3647 301° West 354 407 40,000  Level Indianapolis Center
Thu 07:12:31 AM 40.2428 -83.4939 301° West 351 404 40,000  Level Indianapolis Center
Thu 07:13:32 AM 40.2906 -83.6014 300° West 348 400 40,000  Level Indianapolis Center
Thu 07:14:33 AM 40.3383 -83.7081 300° West 347 399 40,000  Level Indianapolis Center
Thu 07:15:34 AM 40.3853 -83.8147 300° West 343 395 40,000  Level Indianapolis Center
Thu 07:16:35 AM 40.4311 -83.9203 300° West 340 391 40,000  Level Indianapolis Center
Thu 07:17:36 AM 40.4775 -84.0247 300° West 337 388 40,000  Level Indianapolis Center
Thu 07:18:36 AM 40.5236 -84.1306 300° West 336 387 40,000  Level Indianapolis Center
Thu 07:19:37 AM 40.5697 -84.2347 300° West 333 383 40,000 -98 Level Indianapolis Center
Thu 07:20:38 AM 40.6156 -84.3414 300° West 334 384 39,800 -1,033 Descending Indianapolis Center
Thu 07:21:39 AM 40.6608 -84.4453 300° West 333 383 37,900 -2,557 Descending Indianapolis Center
Thu 07:22:40 AM 40.7061 -84.5489 300° West 327 376 34,600 -1,918 Descending Indianapolis Center
Thu 07:23:41 AM 40.7689 -84.6939 300° West 373 429 34,000 -295 Descending Indianapolis Center
Thu 07:24:42 AM 40.8189 -84.8133 299° West 373 429 34,000  Level Indianapolis Center
Thu 07:25:43 AM 40.8681 -84.9378 298° West 372 428 34,000  Level Indianapolis Center
Thu 07:26:44 AM 40.9136 -85.0578 297° West 370 426 34,000 -353 Level Indianapolis Center
Thu 07:27:42 AM 40.9547 -85.1614 298° West 369 425 33,300 -807 Descending Chicago Center
Thu 07:28:43 AM 41.0022 -85.2875 297° West 375 432 32,400 -934 Descending Chicago Center
Thu 07:29:44 AM 41.0508 -85.4131 297° West 382 440 31,400 -976 Descending Chicago Center
Thu 07:30:46 AM 41.0989 -85.5456 296° West 396 456 30,400 -1,171 Descending Chicago Center
Thu 07:31:47 AM 41.1481 -85.6733 297° West 392 451 29,000 -1,672 Descending Chicago Center
Thu 07:32:48 AM 41.1939 -85.7967 296° West 375 432 27,000 -1,918 Descending Chicago Center
Thu 07:33:49 AM 41.2381 -85.9161 296° West 361 415 25,100 -984 Descending Chicago Center
Thu 07:34:50 AM 41.2883 -86.0550 296° West 351 404 25,000 -634 Descending Chicago Center
Thu 07:35:52 AM 41.3125 -86.1778 285° West 344 396 23,800 -1,366 Descending Chicago Center
Thu 07:36:53 AM 41.3386 -86.2992 286° West 343 395 22,200 -1,574 Descending Chicago Center
Thu 07:37:54 AM 41.3625 -86.4131 286° West 322 371 20,600 -1,475 Descending Chicago Center
Thu 07:38:55 AM 41.3844 -86.5231 285° West 309 356 19,200 -1,366 Descending Chicago Center
Thu 07:39:57 AM 41.4069 -86.6297 286° West 299 344 17,800 -1,415 Descending Chicago Center
Thu 07:40:58 AM 41.4333 -86.7503 286° West 306 352 16,300 -1,415 Descending Chicago Center
Thu 07:42:00 AM 41.4550 -86.8572 285° West 301 346 14,900 -1,415 Descending Chicago Center
Thu 07:43:01 AM 41.4786 -86.9694 286° West 298 343 13,400 -1,426 Descending Chicago Center
Thu 07:44:02 AM 41.4992 -87.0739 285° West 291 335 12,000 -1,171 Descending Chicago Center
Thu 07:45:04 AM 41.5239 -87.1739 288° West 286 329 11,000 -488 Descending Chicago Center
Thu 07:46:05 AM 41.5772 -87.2544 312° West 287 330 11,000  Level Chicago Center
Thu 07:47:06 AM 41.6331 -87.3425 310° West 289 333 11,000  Level Chicago Center
Thu 07:48:08 AM 41.6850 -87.4242 310° West 289 333 11,000 -145 Level Chicago Center
Thu 07:49:10 AM 41.7364 -87.5072 310° West 289 333 10,700 -829 Descending Chicago Center
Thu 07:50:11 AM 41.7917 -87.5931 311° West 288 331 9,300 -1,328 Descending Chicago Center
Thu 07:51:12 AM 41.8394 -87.6714 309° West 278 320 8,000 -639 Descending Chicago Center
Thu 07:52:13 AM 41.8808 -87.7503 305° West 263 303 8,000  Level Chicago Center
Thu 07:53:14 AM 41.8775 -87.8567 268° West 263 303 8,000  Level Chicago Center
Thu 07:54:16 AM 41.8731 -87.9550 267° West 265 305 8,000  Level Chicago Center
Thu 07:55:17 AM 41.8683 -88.0547 266° West 266 306 8,000 -634 Level Chicago Center
Thu 07:56:19 AM 41.8636 -88.1519 266° West 248 285 6,700 -1,171 Descending Chicago Center
Thu 07:57:20 AM 41.8700 -88.2389 276° West 234 269 5,600 -836 Descending Chicago Center
Thu 07:58:21 AM 41.8803 -88.3219 279° West 230 265 5,000 -293 Descending Chicago Center
Thu 07:59:23 AM 41.9097 -88.3986 297° West 231 266 5,000  Level Chicago Center
Thu 08:00:24 AM 41.9603 -88.3597 30° Northeast 249 287 5,000  Level Chicago Center
Thu 08:01:26 AM 41.9639 -88.2767 87° East 223 257 5,000 -146 Level Chicago Center
Thu 08:02:27 AM 41.9644 -88.2008 89° East 208 239 4,700 -738 Descending Chicago Center
Thu 08:03:28 AM 41.9650 -88.1219 89° East 198 228 3,500 -976 Descending Chicago Center
Thu 08:04:30 AM 41.9644 -88.0650 91° East 155 178 2,700 -780 Descending Chicago Center
Thu 08:05:31 AM 41.9650 -88.0133 89° East 141 162 1,900 -683 Descending Chicago Center
Thu 08:06:33 AM 41.9647 -87.9675 90° East 119 137 1,300 -537 Descending Chicago Center
Thu 08:07:34 AM 41.9653 -87.9269 89° East 119 137 800 -492 Descending Chicago Center

Login

Don't have an account? Register now (free) for customized features, flight alerts, and more!